Time;durP1;ratioP1;P1;durP2;ratioP2;P2;SDS_P1;SDS_P2;PMS_P1;PMS_P2;Temp;Humidity;BMP_temperature;BMP_pressure;BME280_temperature;BME280_humidity;BME280_pressure;Samples;Min_cycle;Max_cycle;Signal;HPM_P1;HPM_P2
2021/06/17 00:00:17;;;;;;;49.73;21.85;;;;;;;19.05;90.22;100078.73;1790649;79;21688;-59
2021/06/17 00:02:47;;;;;;;48.73;22.40;;;;;;;19.04;90.25;100069.53;1790564;80;21598;-59
2021/06/17 00:05:18;;;;;;;39.95;18.77;;;;;;;19.03;90.28;100063.82;1790619;80;21136;-59
2021/06/17 00:07:49;;;;;;;42.03;19.32;;;;;;;19.02;90.28;100064.81;1790775;80;21088;-60
2021/06/17 00:10:26;;;;;;;47.05;18.27;;;;;;;18.99;90.29;100063.73;1790522;80;21519;-60
2021/06/17 00:12:56;;;;;;;42.48;18.62;;;;;;;18.98;90.30;100062.02;1790861;79;21111;-59
2021/06/17 00:15:27;;;;;;;40.80;17.02;;;;;;;18.98;90.33;100062.02;1790756;80;21084;-60
2021/06/17 00:17:57;;;;;;;43.13;17.23;;;;;;;18.99;90.35;100051.72;1790742;79;21072;-60
2021/06/17 00:20:28;;;;;;;39.15;15.48;;;;;;;18.98;90.35;100054.89;1790657;80;21150;-60
2021/06/17 00:22:57;;;;;;;39.73;16.37;;;;;;;18.98;90.34;100064.70;1790537;80;21063;-60
2021/06/17 00:25:27;;;;;;;35.05;15.60;;;;;;;18.94;90.45;100060.60;1790755;80;21545;-59
2021/06/17 00:27:56;;;;;;;34.35;14.68;;;;;;;18.94;90.46;100060.60;1790702;80;21554;-59
2021/06/17 00:30:25;;;;;;;30.43;12.63;;;;;;;18.94;90.45;100061.94;1790635;80;21072;-59
2021/06/17 00:32:58;;;;;;;18.57;10.63;;;;;;;18.94;90.45;100065.47;1795664;79;21099;-60
2021/06/17 00:35:28;;;;;;;28.23;13.85;;;;;;;18.91;90.54;100068.39;1807720;79;21537;-59
2021/06/17 00:38:00;;;;;;;26.25;12.75;;;;;;;18.90;90.55;100063.55;1807732;79;21108;-60
2021/06/17 00:40:31;;;;;;;25.23;12.37;;;;;;;18.94;90.55;100067.27;1807917;78;21119;-60
2021/06/17 00:43:00;;;;;;;28.27;12.70;;;;;;;18.95;90.54;100056.97;1807738;79;21060;-60
2021/06/17 00:45:34;;;;;;;24.52;11.22;;;;;;;18.96;90.58;100051.98;1807711;79;21673;-60
2021/06/17 00:48:05;;;;;;;29.20;12.58;;;;;;;18.96;90.59;100057.31;1807599;79;21556;-60
2021/06/17 00:50:37;;;;;;;32.10;13.83;;;;;;;18.94;90.67;100053.47;1807652;79;21100;-60
2021/06/17 00:53:08;;;;;;;27.13;13.25;;;;;;;18.95;90.79;100059.64;1807881;79;21490;-60
2021/06/17 00:55:40;;;;;;;17.12;8.65;;;;;;;18.97;90.79;100066.52;1807620;79;21621;-60
2021/06/17 00:58:09;;;;;;;26.62;12.65;;;;;;;18.98;90.80;100072.70;1807724;79;21068;-60
2021/06/17 01:00:38;;;;;;;38.40;14.45;;;;;;;18.98;90.77;100078.03;1807708;79;21530;-60
2021/06/17 01:03:08;;;;;;;20.62;9.83;;;;;;;19.00;90.75;100082.78;1807998;79;21502;-59
2021/06/17 01:05:37;;;;;;;30.17;13.03;;;;;;;19.00;90.75;100086.78;1807860;79;21159;-59
2021/06/17 01:08:38;;;;;;;30.48;13.22;;;;;;;19.00;90.75;100090.28;1807824;79;21593;-60
2021/06/17 01:11:15;;;;;;;29.25;12.85;;;;;;;19.01;90.74;100090.63;1829119;78;21696;-59
2021/06/17 01:13:52;;;;;;;25.40;11.75;;;;;;;19.01;90.76;100088.45;1843025;78;21461;-59
2021/06/17 01:16:30;;;;;;;26.07;12.58;;;;;;;19.02;90.75;100084.83;1843302;78;21098;-59
2021/06/17 01:19:02;;;;;;;20.00;10.40;;;;;;;19.00;90.78;100090.78;1843072;78;21152;-60
2021/06/17 01:22:05;;;;;;;21.12;10.93;;;;;;;19.00;90.80;100098.29;1843064;78;21066;-59
2021/06/17 01:24:53;;;;;;;16.70;8.68;;;;;;;18.99;90.88;100095.75;1843252;76;21493;-59
2021/06/17 01:27:41;;;;;;;14.35;7.75;;;;;;;18.96;90.90;100085.33;1843232;78;21178;-60
2021/06/17 01:30:13;;;;;;;12.15;6.37;;;;;;;18.93;91.02;100090.44;1840383;78;21113;-59
2021/06/17 01:32:47;;;;;;;12.95;6.87;;;;;;;18.90;91.18;100076.89;1843113;78;21062;-60
2021/06/17 01:35:18;;;;;;;12.73;6.55;;;;;;;18.88;91.43;100071.30;1843003;78;21105;-59
2021/06/17 01:37:50;;;;;;;12.55;6.72;;;;;;;18.86;91.60;100074.59;1843357;78;21473;-60
2021/06/17 01:40:19;;;;;;;11.97;6.80;;;;;;;18.85;91.72;100064.42;1843004;78;21109;-60
2021/06/17 01:42:49;;;;;;;11.48;5.97;;;;;;;18.84;91.83;100050.71;1843083;78;21466;-59
2021/06/17 01:45:18;;;;;;;11.55;6.67;;;;;;;18.82;91.89;100038.00;1843204;78;21042;-60
2021/06/17 01:47:50;;;;;;;11.85;7.53;;;;;;;18.81;91.90;100044.33;1843020;78;21140;-60
2021/06/17 01:50:21;;;;;;;12.78;7.78;;;;;;;18.79;91.87;100035.55;1843020;77;21046;-60
2021/06/17 01:52:53;;;;;;;13.30;8.18;;;;;;;18.78;91.85;100037.04;1843105;77;21508;-60
2021/06/17 01:55:23;;;;;;;14.53;7.53;;;;;;;18.74;91.78;100031.12;1842697;78;21153;-60
2021/06/17 01:57:53;;;;;;;18.80;8.48;;;;;;;18.72;91.69;100038.41;1842736;76;21094;-59
2021/06/17 02:00:22;;;;;;;14.60;8.00;;;;;;;18.70;91.79;100046.99;1843072;78;21078;-61
2021/06/17 02:02:51;;;;;;;12.55;7.30;;;;;;;18.69;91.87;100050.16;1843314;77;21108;-65
2021/06/17 02:05:22;;;;;;;16.65;8.85;;;;;;;18.68;91.91;100045.81;1843004;78;21521;-60
2021/06/17 02:07:52;;;;;;;20.00;8.18;;;;;;;18.68;91.87;100054.28;1843145;77;21430;-61
2021/06/17 02:10:22;;;;;;;15.10;8.08;;;;;;;18.66;91.86;100062.90;1843053;78;21488;-60
2021/06/17 02:12:51;;;;;;;13.80;6.85;;;;;;;18.68;92.01;100067.61;1843105;78;21567;-61
2021/06/17 02:15:22;;;;;;;16.45;8.38;;;;;;;18.72;92.05;100062.41;1843191;77;21499;-61
2021/06/17 02:17:53;;;;;;;16.65;7.50;;;;;;;18.75;92.09;100066.12;1843127;77;21038;-62
2021/06/17 02:20:23;;;;;;;10.18;6.45;;;;;;;18.79;92.05;100059.55;1843022;78;21596;-60
2021/06/17 02:22:55;;;;;;;11.48;6.60;;;;;;;18.82;91.98;100064.67;1843038;78;21525;-60
2021/06/17 02:25:25;;;;;;;8.95;6.12;;;;;;;18.85;91.90;100068.42;1843013;78;21136;-64
2021/06/17 02:27:56;;;;;;;5.60;3.45;;;;;;;18.89;91.80;100061.84;1842944;78;21054;-61
2021/06/17 02:30:28;;;;;;;9.75;3.52;;;;;;;18.86;91.70;100062.09;1842745;76;21516;-63
2021/06/17 02:33:00;;;;;;;5.83;2.25;;;;;;;18.85;91.74;100059.09;1843047;78;21112;-62
2021/06/17 02:35:30;;;;;;;6.60;2.50;;;;;;;18.81;91.70;100060.33;1844789;76;21078;-64
2021/06/17 02:38:01;;;;;;;7.30;2.45;;;;;;;18.83;91.69;100053.04;1845420;77;21465;-63
2021/06/17 02:40:33;;;;;;;5.12;2.92;;;;;;;18.86;91.61;100063.92;1845322;77;21077;-68
2021/06/17 02:43:03;;;;;;;6.87;2.60;;;;;;;18.88;91.58;100066.80;1845490;78;21082;-65
2021/06/17 02:45:34;;;;;;;4.33;2.47;;;;;;;18.93;91.44;100066.93;1845629;76;21540;-66
2021/06/17 02:48:03;;;;;;;8.83;2.77;;;;;;;18.93;91.34;100076.27;1845491;78;21102;-59
2021/06/17 02:50:32;;;;;;;5.28;1.75;;;;;;;19.13;91.04;100087.42;1845361;77;21046;-59
2021/06/17 02:53:01;;;;;;;1.87;1.02;;;;;;;19.25;90.99;100075.67;1845497;78;21070;-59
2021/06/17 02:55:31;;;;;;;3.27;1.10;;;;;;;19.14;90.35;100062.91;1845436;78;21132;-60
2021/06/17 02:58:19;;;;;;;5.70;1.15;;;;;;;19.18;89.99;100061.20;1845462;78;21083;-59
2021/06/17 03:00:54;;;;;;;4.37;1.07;;;;;;;19.16;89.01;100081.80;1841781;78;21584;-59
2021/06/17 03:03:25;;;;;;;3.20;0.90;;;;;;;19.16;88.43;100071.13;1844335;77;21585;-60
2021/06/17 03:06:03;;;;;;;3.70;0.80;;;;;;;19.29;88.33;100081.13;1844680;77;21564;-59
2021/06/17 03:08:37;;;;;;;1.95;0.90;;;;;;;19.37;88.34;100076.95;1845644;77;21045;-59
2021/06/17 03:11:12;;;;;;;4.37;1.00;;;;;;;19.43;87.57;100071.07;1845371;78;21172;-60
2021/06/17 03:13:47;;;;;;;3.22;0.80;;;;;;;19.39;87.19;100071.83;1845664;78;21481;-59
2021/06/17 03:16:18;;;;;;;4.25;0.93;;;;;;;19.18;86.27;100061.20;1845620;78;21147;-60
2021/06/17 03:18:49;;;;;;;3.70;1.12;;;;;;;19.11;86.50;100061.36;1845546;77;21058;-60
2021/06/17 03:21:19;;;;;;;3.58;0.85;;;;;;;19.05;86.48;100068.06;1845356;78;21043;-59
2021/06/17 03:23:51;;;;;;;3.12;0.90;;;;;;;19.08;86.44;100036.27;1845535;76;21136;-59
2021/06/17 03:26:20;;;;;;;7.12;0.80;;;;;;;19.18;86.35;100053.19;1845468;78;21122;-59
2021/06/17 03:28:50;;;;;;;4.72;0.70;;;;;;;19.36;86.10;100044.05;1845445;78;21117;-60
2021/06/17 03:31:20;;;;;;;3.58;0.85;;;;;;;19.45;85.32;100039.74;1845398;78;21124;-59
2021/06/17 03:33:50;;;;;;;3.75;1.00;;;;;;;19.58;85.36;100049.70;1845516;77;21489;-59
2021/06/17 03:36:20;;;;;;;5.08;1.02;;;;;;;19.62;85.17;100059.16;1843405;77;21152;-59
2021/06/17 03:38:49;;;;;;;1.77;0.80;;;;;;;19.63;84.47;100034.62;1842971;78;21050;-61
2021/06/17 03:41:19;;;;;;;6.12;1.00;;;;;;;19.67;84.08;100064.91;1843053;78;21015;-60
2021/06/17 03:43:50;;;;;;;4.37;0.80;;;;;;;19.81;83.60;100072.25;1843019;78;21117;-60
2021/06/17 03:46:20;;;;;;;1.87;0.50;;;;;;;20.06;83.06;100087.77;1843014;78;21600;-59
2021/06/17 03:48:49;;;;;;;2.83;0.80;;;;;;;20.31;81.55;100083.41;1843064;77;21117;-59
2021/06/17 03:51:18;;;;;;;4.08;0.90;;;;;;;20.48;80.85;100088.55;1842908;76;21489;-60
2021/06/17 03:53:47;;;;;;;2.80;0.70;;;;;;;20.72;80.10;100094.34;1843040;78;21066;-60
2021/06/17 03:56:17;;;;;;;1.27;0.60;;;;;;;20.92;79.26;100089.00;1843008;78;21595;-59
2021/06/17 03:58:47;;;;;;;1.85;0.70;;;;;;;21.09;78.02;100099.46;1843037;77;21038;-60
2021/06/17 04:01:17;;;;;;;3.47;0.75;;;;;;;21.23;77.65;100107.52;1843012;78;21051;-60
2021/06/17 04:03:47;;;;;;;0.80;0.50;;;;;;;21.34;76.85;100115.38;1843118;78;21058;-60
2021/06/17 04:06:18;;;;;;;1.70;0.50;;;;;;;21.45;75.78;100150.09;1842988;77;21097;-60
2021/06/17 04:08:52;;;;;;;2.10;0.53;;;;;;;21.61;75.64;100160.17;1843021;78;21551;-59
2021/06/17 04:11:23;;;;;;;1.92;0.90;;;;;;;21.77;75.71;100171.12;1843133;78;21038;-59
2021/06/17 04:13:53;;;;;;;1.20;0.53;;;;;;;21.85;74.41;100185.63;1843036;78;21042;-59
2021/06/17 04:16:25;;;;;;;2.70;0.70;;;;;;;22.03;74.56;100187.05;1843031;78;21046;-59
2021/06/17 04:18:56;;;;;;;2.50;0.60;;;;;;;22.16;73.36;100190.23;1843158;78;21606;-60
2021/06/17 04:21:26;;;;;;;6.92;0.78;;;;;;;22.33;73.39;100193.98;1843046;78;21093;-59
2021/06/17 04:26:45;;;;;;;2.83;0.68;;;;;;;22.67;72.07;100209.48;1830678;78;21522;-60
2021/06/17 04:29:17;;;;;;;2.05;0.68;;;;;;;22.82;71.17;100201.75;1830558;78;21095;-59
2021/06/17 04:31:46;;;;;;;2.60;0.90;;;;;;;22.96;70.70;100199.02;1830655;78;21047;-59
2021/06/17 04:34:16;;;;;;;4.70;0.93;;;;;;;23.09;70.03;100217.81;1830551;78;21051;-59
2021/06/17 04:36:45;;;;;;;3.95;0.80;;;;;;;23.17;68.61;100235.00;1830519;78;21479;-59
2021/06/17 04:39:15;;;;;;;3.08;0.85;;;;;;;23.19;68.75;100219.07;1830473;78;21479;-61
2021/06/17 04:41:45;;;;;;;4.40;0.90;;;;;;;23.17;68.71;100222.92;1830517;78;21052;-60
2021/06/17 04:44:14;;;;;;;2.52;0.60;;;;;;;23.27;68.15;100265.30;1830619;78;21028;-59
2021/06/17 04:46:44;;;;;;;2.58;0.70;;;;;;;23.35;67.65;100280.64;1830652;78;21095;-59
2021/06/17 04:49:14;;;;;;;4.60;1.10;;;;;;;23.45;67.28;100286.78;1830519;78;21051;-60
2021/06/17 04:51:44;;;;;;;3.83;0.93;;;;;;;23.62;67.12;100298.52;1830519;78;21040;-59
2021/06/17 04:54:20;;;;;;;4.67;0.88;;;;;;;23.73;66.21;100299.61;1830397;78;21130;-60
2021/06/17 04:56:49;;;;;;;2.75;0.80;;;;;;;23.87;65.89;100310.34;1830594;77;21184;-60
2021/06/17 04:59:19;;;;;;;7.55;1.00;;;;;;;24.08;65.07;100329.63;1854729;76;21170;-59
2021/06/17 05:01:50;;;;;;;4.33;1.12;;;;;;;24.24;64.87;100326.22;1863956;77;21481;-60
2021/06/17 05:04:19;;;;;;;2.98;0.80;;;;;;;24.38;64.30;100327.97;1863975;77;21062;-61
2021/06/17 05:12:17;;;;;;;2.80;0.65;;;;;;;24.51;62.16;100375.46;1864028;77;21119;-59
2021/06/17 05:14:46;;;;;;;7.17;0.98;;;;;;;24.55;63.02;100368.81;1863840;77;21025;-61
2021/06/17 05:17:15;;;;;;;5.65;1.00;;;;;;;24.57;62.40;100368.66;1864015;77;21481;-59
2021/06/17 05:19:44;;;;;;;2.87;0.70;;;;;;;24.42;61.63;100378.63;1864138;77;21053;-59
2021/06/17 05:22:13;;;;;;;4.72;1.00;;;;;;;24.30;62.10;100383.09;1863922;77;21410;-59
2021/06/17 05:24:42;;;;;;;4.47;0.80;;;;;;;24.17;62.00;100378.12;1863897;77;21100;-60
2021/06/17 05:27:11;;;;;;;2.87;1.07;;;;;;;23.99;62.52;100398.31;1863860;77;21014;-60
2021/06/17 05:29:39;;;;;;;7.25;1.42;;;;;;;24.11;62.85;100408.31;1863838;77;21445;-59
2021/06/17 05:32:09;;;;;;;6.80;1.05;;;;;;;24.36;62.53;100414.73;1864004;77;21056;-60
2021/06/17 05:34:37;;;;;;;5.22;1.10;;;;;;;24.40;62.01;100430.89;1863916;77;21547;-60
2021/06/17 05:37:06;;;;;;;4.15;1.20;;;;;;;24.55;61.52;100444.17;1863777;77;21131;-59
2021/06/17 05:39:35;;;;;;;4.20;1.32;;;;;;;24.88;61.56;100463.70;1863793;77;21163;-59
2021/06/17 05:42:04;;;;;;;3.80;1.10;;;;;;;25.10;61.32;100470.38;1863691;77;21033;-60
2021/06/17 05:44:33;;;;;;;4.42;1.15;;;;;;;25.21;60.85;100468.27;1863966;77;21010;-60
2021/06/17 05:47:01;;;;;;;4.53;1.10;;;;;;;24.84;60.34;100459.14;1863938;77;20997;-59
2021/06/17 05:49:30;;;;;;;4.83;0.90;;;;;;;24.26;61.26;100474.02;1863935;77;21066;-60
2021/06/17 05:51:59;;;;;;;3.98;0.82;;;;;;;23.70;62.15;100473.30;1864055;77;21132;-59
2021/06/17 05:54:28;;;;;;;3.65;0.80;;;;;;;23.43;63.61;100484.41;1864049;77;21148;-59
2021/06/17 05:56:56;;;;;;;7.37;1.15;;;;;;;23.38;64.30;100488.03;1864208;76;21513;-60
2021/06/17 05:59:26;;;;;;;4.00;0.80;;;;;;;23.41;64.46;100487.74;1852306;77;21158;-59
2021/06/17 06:01:55;;;;;;;4.37;1.07;;;;;;;23.46;64.89;100499.38;1846745;78;21139;-59
2021/06/17 06:04:24;;;;;;;3.62;1.42;;;;;;;23.37;65.04;100503.82;1846628;76;21103;-59
2021/06/17 06:06:53;;;;;;;2.55;1.12;;;;;;;23.40;65.48;100502.16;1846611;78;21145;-60
2021/06/17 06:09:23;;;;;;;3.98;1.20;;;;;;;23.24;64.89;100509.53;1846692;78;21084;-59
2021/06/17 06:11:52;;;;;;;1.98;0.85;;;;;;;23.07;65.73;100512.97;1846611;77;21083;-59
2021/06/17 06:14:21;;;;;;;2.62;1.00;;;;;;;22.83;65.91;100497.33;1846668;78;21059;-59
2021/06/17 06:16:51;;;;;;;2.98;0.80;;;;;;;22.52;66.64;100509.13;1846829;78;21064;-59
2021/06/17 06:19:20;;;;;;;2.77;1.40;;;;;;;22.46;67.42;100504.81;1846693;78;21095;-59
2021/06/17 06:21:48;;;;;;;3.83;0.85;;;;;;;22.39;67.96;100504.55;1846690;78;21084;-59
2021/06/17 06:24:18;;;;;;;3.20;1.02;;;;;;;22.42;67.17;100510.12;1846621;78;21087;-60
2021/06/17 06:26:47;;;;;;;2.98;1.10;;;;;;;22.26;66.87;100532.13;1846604;78;21486;-59
2021/06/17 06:29:16;;;;;;;4.35;1.10;;;;;;;21.98;67.59;100548.89;1846569;78;21071;-60
2021/06/17 06:31:45;;;;;;;2.80;0.70;;;;;;;21.80;68.58;100553.22;1846692;77;21562;-60
2021/06/17 06:34:13;;;;;;;4.08;0.90;;;;;;;21.72;69.21;100558.41;1846537;78;21133;-60
2021/06/17 06:36:42;;;;;;;2.45;0.80;;;;;;;21.62;69.33;100560.22;1846687;77;21075;-59
2021/06/17 06:39:12;;;;;;;2.00;1.00;;;;;;;21.56;69.81;100562.45;1846666;78;21125;-59
2021/06/17 06:41:41;;;;;;;4.42;0.95;;;;;;;21.56;70.20;100558.91;1846638;78;21055;-60
2021/06/17 06:44:10;;;;;;;3.60;1.00;;;;;;;21.54;70.50;100553.70;1846571;78;21435;-60
2021/06/17 06:46:43;;;;;;;2.85;1.02;;;;;;;21.62;70.68;100565.58;1846503;78;21163;-59
2021/06/17 06:49:12;;;;;;;3.55;0.70;;;;;;;21.76;70.69;100575.90;1846859;78;21546;-59
2021/06/17 06:51:41;;;;;;;6.25;0.82;;;;;;;21.86;70.81;100583.98;1846586;78;21052;-60
2021/06/17 06:54:11;;;;;;;3.08;0.90;;;;;;;21.93;70.26;100592.68;1846569;78;21564;-60
2021/06/17 06:56:40;;;;;;;3.45;0.98;;;;;;;22.09;69.80;100585.92;1846709;78;21133;-60
2021/06/17 06:59:09;;;;;;;1.72;0.50;;;;;;;22.33;69.32;100593.11;1850166;77;21581;-60
2021/06/17 07:01:38;;;;;;;3.05;0.78;;;;;;;22.85;67.95;100585.27;1860520;77;21067;-60
2021/06/17 07:04:07;;;;;;;2.30;0.80;;;;;;;23.31;67.13;100589.02;1860573;77;21048;-60
2021/06/17 07:06:38;;;;;;;4.72;0.80;;;;;;;24.00;66.16;100586.41;1860611;77;21062;-60
2021/06/17 07:09:08;;;;;;;1.70;0.60;;;;;;;24.73;64.71;100585.95;1860608;77;21091;-59
2021/06/17 07:11:37;;;;;;;2.08;0.42;;;;;;;25.40;62.57;100589.81;1860503;77;21132;-60
2021/06/17 07:14:07;;;;;;;2.02;0.57;;;;;;;26.00;60.75;100592.11;1860594;77;21181;-59
2021/06/17 07:16:36;;;;;;;2.25;0.75;;;;;;;26.16;58.94;100602.94;1860599;77;21115;-59
2021/06/17 07:19:07;;;;;;;2.15;0.40;;;;;;;26.29;57.27;100605.16;1860538;77;21079;-60
2021/06/17 07:21:35;;;;;;;1.82;0.72;;;;;;;26.69;55.45;100606.74;1860496;77;21055;-60
2021/06/17 07:24:05;;;;;;;0.40;0.40;;;;;;;26.64;54.78;100611.83;1860618;77;21068;-60
2021/06/17 07:26:34;;;;;;;1.98;0.80;;;;;;;26.34;54.97;100601.98;1860729;77;21052;-60
2021/06/17 07:29:03;;;;;;;2.22;0.65;;;;;;;26.51;55.12;100610.42;1860577;77;21157;-59
2021/06/17 07:31:31;;;;;;;1.72;0.95;;;;;;;26.79;53.60;100602.03;1860797;77;21566;-59
2021/06/17 07:34:00;;;;;;;4.35;2.00;;;;;;;27.21;54.04;100614.49;1860587;77;21122;-60
2021/06/17 07:36:29;;;;;;;1.17;0.72;;;;;;;27.66;54.09;100614.38;1860498;77;21455;-60
2021/06/17 07:38:58;;;;;;;1.47;0.50;;;;;;;28.03;52.43;100614.77;1860596;77;21166;-60
2021/06/17 07:41:27;;;;;;;1.55;0.60;;;;;;;28.13;51.19;100607.77;1860714;77;21099;-60
2021/06/17 07:43:56;;;;;;;1.35;0.60;;;;;;;28.32;51.36;100614.09;1860656;77;21158;-60
2021/06/17 07:46:25;;;;;;;3.33;0.72;;;;;;;28.19;50.56;100624.16;1860567;77;21063;-60
2021/06/17 07:48:54;;;;;;;4.85;0.88;;;;;;;27.76;50.43;100621.45;1860602;77;21118;-60
2021/06/17 07:51:23;;;;;;;0.75;0.50;;;;;;;27.32;51.06;100633.59;1860519;77;21048;-59
2021/06/17 07:53:52;;;;;;;3.85;1.15;;;;;;;27.16;51.24;100626.31;1860615;76;21056;-60
2021/06/17 07:56:21;;;;;;;2.35;0.57;;;;;;;27.03;52.26;100630.89;1860576;76;21044;-60
2021/06/17 07:58:50;;;;;;;1.45;0.50;;;;;;;27.26;51.41;100634.27;1860625;77;21048;-59
2021/06/17 08:01:18;;;;;;;4.20;0.60;;;;;;;27.34;50.10;100639.16;1865917;76;21175;-60
2021/06/17 08:03:48;;;;;;;1.22;0.40;;;;;;;27.40;49.49;100648.95;1866781;77;21091;-59
2021/06/17 08:06:17;;;;;;;1.70;0.60;;;;;;;27.48;49.33;100650.27;1866889;77;21560;-60
2021/06/17 08:08:46;;;;;;;2.87;0.60;;;;;;;27.33;50.17;100653.70;1867018;77;21197;-59
2021/06/17 08:11:14;;;;;;;1.22;0.50;;;;;;;27.36;50.57;100651.67;1867005;77;21125;-60
2021/06/17 08:13:44;;;;;;;1.40;0.50;;;;;;;27.49;50.39;100652.81;1866894;77;21107;-59
2021/06/17 08:16:13;;;;;;;2.70;0.88;;;;;;;27.92;50.08;100649.83;1866790;77;21075;-60
2021/06/17 08:18:43;;;;;;;1.90;0.72;;;;;;;27.61;49.21;100652.44;1866981;77;21067;-59
2021/06/17 08:21:11;;;;;;;5.05;1.10;;;;;;;27.36;49.77;100648.45;1866975;77;21031;-60
2021/06/17 08:23:40;;;;;;;2.37;0.60;;;;;;;27.25;50.46;100649.61;1866999;77;21076;-60
2021/06/17 08:26:08;;;;;;;1.77;0.62;;;;;;;27.43;50.23;100653.51;1866889;77;21052;-60
2021/06/17 08:28:37;;;;;;;2.58;0.70;;;;;;;27.54;49.16;100659.91;1866905;77;21133;-60
2021/06/17 08:31:06;;;;;;;0.88;0.60;;;;;;;28.03;48.76;100658.06;1866984;77;21149;-60
2021/06/17 08:33:37;;;;;;;1.15;0.70;;;;;;;27.65;48.75;100675.44;1866875;77;21067;-59
2021/06/17 08:36:08;;;;;;;1.57;0.57;;;;;;;27.19;49.05;100678.69;1867087;76;21144;-60
2021/06/17 08:38:39;;;;;;;0.93;0.50;;;;;;;26.87;50.65;100677.69;1866876;77;21074;-60
2021/06/17 08:41:08;;;;;;;1.50;0.80;;;;;;;26.38;51.15;100688.36;1866809;77;21083;-60
2021/06/17 08:43:37;;;;;;;2.00;0.75;;;;;;;26.49;52.30;100685.34;1866970;77;21199;-59
2021/06/17 08:46:06;;;;;;;0.65;0.55;;;;;;;27.23;52.64;100687.30;1866883;77;21099;-60
2021/06/17 08:48:36;;;;;;;1.98;0.80;;;;;;;27.64;50.80;100692.16;1866895;77;21568;-60
2021/06/17 08:51:05;;;;;;;0.68;0.33;;;;;;;27.81;49.97;100697.00;1866884;77;21048;-60
2021/06/17 08:53:34;;;;;;;1.20;0.50;;;;;;;27.75;48.42;100699.58;1866866;77;21055;-60
2021/06/17 08:56:04;;;;;;;2.10;0.50;;;;;;;27.70;49.00;100698.73;1866784;77;21137;-61
2021/06/17 08:58:33;;;;;;;2.58;0.70;;;;;;;27.83;49.11;100711.72;1866958;77;21051;-60
2021/06/17 09:01:14;;;;;;;2.35;0.70;;;;;;;28.00;48.54;100713.41;1863992;77;21169;-60
2021/06/17 09:03:44;;;;;;;1.12;0.70;;;;;;;27.85;49.02;100706.48;1860531;77;21055;-60
2021/06/17 09:06:13;;;;;;;1.15;0.50;;;;;;;27.82;48.81;100714.94;1860442;77;21118;-61
2021/06/17 09:08:42;;;;;;;7.25;0.75;;;;;;;27.77;48.33;100715.13;1860538;77;21051;-60
2021/06/17 09:11:19;;;;;;;3.72;0.78;;;;;;;27.97;48.34;100720.50;1860628;77;21052;-60
2021/06/17 09:13:49;;;;;;;7.80;1.10;;;;;;;28.22;46.76;100722.62;1860518;77;21090;-60
2021/06/17 09:16:27;;;;;;;5.22;0.80;;;;;;;27.96;47.03;100738.27;1860531;77;21027;-60
2021/06/17 09:18:56;;;;;;;1.85;0.70;;;;;;;27.91;47.34;100734.73;1860554;77;21154;-60
2021/06/17 09:21:26;;;;;;;1.62;0.80;;;;;;;27.80;47.60;100742.67;1860721;77;21016;-59
2021/06/17 09:23:55;;;;;;;2.83;0.68;;;;;;;27.08;48.55;100738.48;1860641;77;21494;-60
2021/06/17 09:26:24;;;;;;;2.77;0.90;;;;;;;26.28;50.18;100734.39;1860861;77;21067;-60
2021/06/17 09:29:07;;;;;;;1.62;0.90;;;;;;;26.16;51.18;100748.66;1860662;77;21086;-59
2021/06/17 09:31:31;;;;;;;1.32;0.60;;;;;;;26.15;51.42;100747.47;1857066;77;21111;-60
2021/06/17 09:34:02;;;;;;;1.12;0.60;;;;;;;25.78;52.15;100751.27;1860289;77;21075;-60
2021/06/17 09:36:32;;;;;;;1.95;0.57;;;;;;;25.85;52.69;100773.08;1860716;76;21051;-60
2021/06/17 09:39:19;;;;;;;3.25;0.60;;;;;;;26.02;51.95;100763.25;1860659;77;21431;-60
2021/06/17 09:41:45;;;;;;;1.00;0.40;;;;;;;25.93;52.08;100763.22;1857534;76;21083;-60
2021/06/17 09:44:39;;;;;;;6.28;1.70;;;;;;;25.35;53.00;100779.44;1860760;77;21053;-60
2021/06/17 09:47:22;;;;;;;9.45;8.53;;;;;;;24.87;54.22;100775.76;1860746;77;21086;-60
2021/06/17 09:49:51;;;;;;;4.62;1.30;;;;;;;24.53;55.97;100796.08;1860767;77;21092;-59
2021/06/17 09:52:21;;;;;;;2.42;0.70;;;;;;;24.38;55.99;100801.55;1860694;77;21056;-60
2021/06/17 09:54:49;;;;;;;1.50;0.50;;;;;;;24.55;55.92;100808.88;1860633;77;21056;-60
2021/06/17 09:57:19;;;;;;;5.47;0.90;;;;;;;24.97;55.77;100807.48;1860736;77;21103;-59
2021/06/17 09:59:54;;;;;;;2.47;0.55;;;;;;;25.29;55.18;100810.22;1860605;77;21118;-60
2021/06/17 10:02:31;;;;;;;1.60;0.50;;;;;;;25.45;55.07;100814.89;1860772;77;21056;-60
2021/06/17 10:05:26;;;;;;;2.08;0.50;;;;;;;25.33;55.26;100820.52;1859748;77;21101;-60
2021/06/17 10:07:53;;;;;;;;;;;;;;;25.52;55.12;100815.97;1863452;77;21126;-60
2021/06/17 10:10:26;;;;;;;2.72;0.42;;;;;;;25.53;54.43;100839.24;1860846;77;20145;-60
2021/06/17 10:12:55;;;;;;;1.25;0.40;;;;;;;25.38;54.82;100835.73;1860726;76;21047;-60
2021/06/17 10:15:25;;;;;;;1.00;0.70;;;;;;;25.28;54.81;100851.63;1860734;77;21008;-60
2021/06/17 10:17:54;;;;;;;4.37;0.70;;;;;;;24.90;55.81;100857.09;1860578;77;21541;-60
2021/06/17 10:20:24;;;;;;;7.08;1.07;;;;;;;24.58;56.74;100859.70;1860727;77;21074;-60
2021/06/17 10:22:54;;;;;;;1.27;0.80;;;;;;;24.35;57.42;100868.63;1860592;77;21466;-60
2021/06/17 10:25:32;;;;;;;3.10;0.60;;;;;;;24.10;58.28;100872.79;1860586;77;21123;-60
2021/06/17 10:28:04;;;;;;;7.58;0.90;;;;;;;23.75;59.97;100893.03;1859783;77;21530;-60
2021/06/17 10:30:45;;;;;;;2.50;0.62;;;;;;;23.54;60.66;100897.72;1860600;77;21514;-60
2021/06/17 10:33:39;;;;;;;4.35;1.32;;;;;;;23.42;61.02;100895.13;1859003;77;21047;-59
2021/06/17 10:36:26;;;;;;;5.22;3.08;;;;;;;23.44;61.15;100891.84;1859219;77;21166;-59
2021/06/17 10:39:12;;;;;;;2.87;1.27;;;;;;;23.50;61.11;100875.65;1860613;77;21072;-59
2021/06/17 10:41:57;;;;;;;4.58;1.20;;;;;;;23.61;59.95;100894.33;1860673;77;21079;-59
2021/06/17 10:44:46;;;;;;;7.53;2.60;;;;;;;23.75;59.75;100909.16;1860550;77;21142;-59
2021/06/17 10:47:43;;;;;;;2.30;1.02;;;;;;;23.69;59.82;100901.67;1860737;77;21056;-59
2021/06/17 10:50:14;;;;;;;2.67;1.12;;;;;;;23.73;59.68;100908.46;1843048;77;21072;-59
2021/06/17 10:52:44;;;;;;;4.80;1.57;;;;;;;23.34;59.89;100920.52;1860482;77;21067;-59
2021/06/17 10:55:18;;;;;;;5.45;1.72;;;;;;;23.07;61.38;100931.42;1860601;77;21056;-59
2021/06/17 10:57:52;;;;;;;5.97;1.55;;;;;;;23.03;61.60;100938.00;1860694;76;21113;-59
2021/06/17 11:00:30;;;;;;;4.87;1.60;;;;;;;22.89;62.38;100924.47;1860557;77;21577;-59
2021/06/17 11:03:01;;;;;;;3.08;1.00;;;;;;;22.78;62.88;100947.38;1864834;77;21130;-60
2021/06/17 11:05:36;;;;;;;1.32;1.05;;;;;;;22.78;63.00;100949.20;1864721;75;21549;-59
2021/06/17 11:08:17;;;;;;;3.33;0.70;;;;;;;22.73;62.22;100954.48;1866877;77;21056;-59
2021/06/17 11:10:48;;;;;;;4.90;3.20;;;;;;;22.57;62.56;100960.81;1857302;77;21134;-59
2021/06/17 11:13:37;;;;;;;4.97;1.85;;;;;;;22.41;63.24;100949.70;1867155;75;21482;-59
2021/06/17 11:16:20;;;;;;;1.30;0.78;;;;;;;22.19;62.86;100955.55;1866980;77;21059;-59
2021/06/17 11:19:13;;;;;;;6.50;1.32;;;;;;;21.96;64.37;100978.42;1867065;77;21113;-59
2021/06/17 11:21:27;;;;;;;2.15;1.10;;;;;;;21.75;65.31;100992.28;1858076;77;21027;-59
2021/06/17 11:24:12;;;;;;;4.65;1.30;;;;;;;21.67;66.60;100988.02;1867036;77;21515;-60
2021/06/17 11:26:46;;;;;;;1.15;0.60;;;;;;;21.58;67.03;100998.53;1864934;77;21133;-59
2021/06/17 11:29:20;;;;;;;4.12;1.47;;;;;;;21.41;68.78;101009.71;1866934;77;21079;-59
2021/06/17 11:31:51;;;;;;;4.87;1.20;;;;;;;21.18;69.84;101004.38;1866946;77;21094;-59
2021/06/17 11:34:37;;;;;;;2.92;1.90;;;;;;;21.10;70.51;101004.16;1866845;77;21188;-60
2021/06/17 11:37:08;;;;;;;4.37;1.72;;;;;;;21.04;72.24;100998.42;1866992;76;21060;-59
2021/06/17 11:39:37;;;;;;;7.70;6.45;;;;;;;21.02;71.71;101015.94;1864625;77;21494;-59
2021/06/17 11:42:08;;;;;;;5.75;2.98;;;;;;;21.03;72.01;101014.98;1866941;77;21051;-60
2021/06/17 11:44:36;;;;;;;3.72;2.62;;;;;;;21.24;71.96;101018.27;1866867;77;21059;-61
2021/06/17 11:47:10;;;;;;;2.67;2.27;;;;;;;21.36;71.37;101017.29;1866880;77;21117;-59
2021/06/17 11:49:40;;;;;;;5.47;2.58;;;;;;;21.41;71.17;101001.67;1866844;77;21048;-59